sensor_id;sensor_type;location;lat;lon;timestamp;temperature;humidity
18932;DHT22;9598;50.954;3.112;2023-06-14T00:00:22;23.80;99.90
18932;DHT22;9598;50.954;3.112;2023-06-14T00:05:24;23.80;99.90
18932;DHT22;9598;50.954;3.112;2023-06-14T00:10:26;23.70;99.90
18932;DHT22;9598;50.954;3.112;2023-06-14T00:15:33;23.70;99.90
18932;DHT22;9598;50.954;3.112;2023-06-14T00:20:35;23.70;99.90
18932;DHT22;9598;50.954;3.112;2023-06-14T00:25:37;23.70;99.90
18932;DHT22;9598;50.954;3.112;2023-06-14T00:30:41;23.60;99.90
18932;DHT22;9598;50.954;3.112;2023-06-14T00:35:45;23.50;99.90
18932;DHT22;9598;50.954;3.112;2023-06-14T00:40:47;23.40;99.90
18932;DHT22;9598;50.954;3.112;2023-06-14T00:45:51;23.30;99.90
18932;DHT22;9598;50.954;3.112;2023-06-14T00:50:54;23.30;99.90
18932;DHT22;9598;50.954;3.112;2023-06-14T00:55:57;23.20;99.90
18932;DHT22;9598;50.954;3.112;2023-06-14T01:01:00;23.10;99.90
18932;DHT22;9598;50.954;3.112;2023-06-14T01:06:11;23.10;99.90
18932;DHT22;9598;50.954;3.112;2023-06-14T01:11:22;23.00;99.90
18932;DHT22;9598;50.954;3.112;2023-06-14T01:16:27;22.90;99.90
18932;DHT22;9598;50.954;3.112;2023-06-14T01:21:30;22.80;99.90
18932;DHT22;9598;50.954;3.112;2023-06-14T01:26:36;22.80;99.90
18932;DHT22;9598;50.954;3.112;2023-06-14T01:31:38;22.80;99.90
18932;DHT22;9598;50.954;3.112;2023-06-14T01:36:43;22.70;99.90
18932;DHT22;9598;50.954;3.112;2023-06-14T01:41:48;22.70;99.90
18932;DHT22;9598;50.954;3.112;2023-06-14T01:46:53;22.60;99.90
18932;DHT22;9598;50.954;3.112;2023-06-14T01:51:57;22.60;99.90
18932;DHT22;9598;50.954;3.112;2023-06-14T01:57:00;22.50;99.90
18932;DHT22;9598;50.954;3.112;2023-06-14T02:02:03;22.50;99.90
18932;DHT22;9598;50.954;3.112;2023-06-14T02:07:06;22.50;99.90
18932;DHT22;9598;50.954;3.112;2023-06-14T02:12:11;22.40;99.90
18932;DHT22;9598;50.954;3.112;2023-06-14T02:17:13;22.30;99.90
18932;DHT22;9598;50.954;3.112;2023-06-14T02:22:15;22.30;99.90
18932;DHT22;9598;50.954;3.112;2023-06-14T02:27:19;22.30;99.90
18932;DHT22;9598;50.954;3.112;2023-06-14T02:32:21;22.20;99.90
18932;DHT22;9598;50.954;3.112;2023-06-14T02:37:23;22.10;99.90
18932;DHT22;9598;50.954;3.112;2023-06-14T02:42:29;22.10;99.90
18932;DHT22;9598;50.954;3.112;2023-06-14T02:47:31;22.00;99.90
18932;DHT22;9598;50.954;3.112;2023-06-14T02:52:33;21.90;99.90
18932;DHT22;9598;50.954;3.112;2023-06-14T02:57:37;21.90;99.90
18932;DHT22;9598;50.954;3.112;2023-06-14T03:02:39;21.90;99.90
18932;DHT22;9598;50.954;3.112;2023-06-14T03:07:43;21.90;99.90
18932;DHT22;9598;50.954;3.112;2023-06-14T03:12:47;21.80;99.90
18932;DHT22;9598;50.954;3.112;2023-06-14T03:17:51;21.80;99.90
18932;DHT22;9598;50.954;3.112;2023-06-14T03:22:55;21.70;99.90
18932;DHT22;9598;50.954;3.112;2023-06-14T03:27:59;21.60;99.90
18932;DHT22;9598;50.954;3.112;2023-06-14T03:33:01;21.60;99.90
18932;DHT22;9598;50.954;3.112;2023-06-14T03:38:04;21.50;99.90
18932;DHT22;9598;50.954;3.112;2023-06-14T03:43:08;21.50;99.90
18932;DHT22;9598;50.954;3.112;2023-06-14T03:48:10;21.40;99.90
18932;DHT22;9598;50.954;3.112;2023-06-14T03:53:12;21.30;99.90
18932;DHT22;9598;50.954;3.112;2023-06-14T03:58:19;21.30;99.90
18932;DHT22;9598;50.954;3.112;2023-06-14T04:03:22;21.30;99.90
18932;DHT22;9598;50.954;3.112;2023-06-14T04:08:31;21.20;99.90
18932;DHT22;9598;50.954;3.112;2023-06-14T04:13:35;21.20;99.90
18932;DHT22;9598;50.954;3.112;2023-06-14T04:18:39;21.20;99.90
18932;DHT22;9598;50.954;3.112;2023-06-14T04:23:41;21.10;99.90
18932;DHT22;9598;50.954;3.112;2023-06-14T04:28:46;21.10;99.90
18932;DHT22;9598;50.954;3.112;2023-06-14T04:33:50;21.10;99.90
18932;DHT22;9598;50.954;3.112;2023-06-14T04:38:56;21.00;99.90
18932;DHT22;9598;50.954;3.112;2023-06-14T04:44:03;20.90;99.90
18932;DHT22;9598;50.954;3.112;2023-06-14T04:49:10;20.90;99.90
18932;DHT22;9598;50.954;3.112;2023-06-14T04:54:15;20.80;99.90
18932;DHT22;9598;50.954;3.112;2023-06-14T04:59:22;21.00;99.90
18932;DHT22;9598;50.954;3.112;2023-06-14T05:04:25;21.20;99.90
18932;DHT22;9598;50.954;3.112;2023-06-14T05:09:28;21.20;99.90
18932;DHT22;9598;50.954;3.112;2023-06-14T05:14:32;21.20;99.90
18932;DHT22;9598;50.954;3.112;2023-06-14T05:19:34;21.20;99.90
18932;DHT22;9598;50.954;3.112;2023-06-14T05:24:37;21.10;99.90
18932;DHT22;9598;50.954;3.112;2023-06-14T05:29:40;21.10;99.90
18932;DHT22;9598;50.954;3.112;2023-06-14T05:34:43;21.20;99.90
18932;DHT22;9598;50.954;3.112;2023-06-14T05:39:45;21.30;99.90
18932;DHT22;9598;50.954;3.112;2023-06-14T05:44:48;21.50;99.90
18932;DHT22;9598;50.954;3.112;2023-06-14T05:49:50;21.60;99.90
18932;DHT22;9598;50.954;3.112;2023-06-14T05:54:53;21.70;99.90
18932;DHT22;9598;50.954;3.112;2023-06-14T05:59:57;21.90;99.90
18932;DHT22;9598;50.954;3.112;2023-06-14T06:04:59;22.10;99.90
18932;DHT22;9598;50.954;3.112;2023-06-14T06:10:01;22.30;99.90
18932;DHT22;9598;50.954;3.112;2023-06-14T06:15:05;22.50;99.90
18932;DHT22;9598;50.954;3.112;2023-06-14T06:20:09;22.70;99.90
18932;DHT22;9598;50.954;3.112;2023-06-14T06:25:12;22.90;99.90
18932;DHT22;9598;50.954;3.112;2023-06-14T06:30:16;23.00;99.90
18932;DHT22;9598;50.954;3.112;2023-06-14T06:35:19;23.20;99.90
18932;DHT22;9598;50.954;3.112;2023-06-14T06:40:21;23.50;99.90
18932;DHT22;9598;50.954;3.112;2023-06-14T06:45:24;23.60;99.90
18932;DHT22;9598;50.954;3.112;2023-06-14T06:50:26;23.80;99.90
18932;DHT22;9598;50.954;3.112;2023-06-14T06:55:29;23.90;99.90
18932;DHT22;9598;50.954;3.112;2023-06-14T07:00:33;24.00;99.90
18932;DHT22;9598;50.954;3.112;2023-06-14T07:05:35;24.10;99.90
18932;DHT22;9598;50.954;3.112;2023-06-14T07:10:37;24.20;99.90
18932;DHT22;9598;50.954;3.112;2023-06-14T07:15:40;24.50;99.90
18932;DHT22;9598;50.954;3.112;2023-06-14T07:20:43;24.80;99.90
18932;DHT22;9598;50.954;3.112;2023-06-14T07:25:45;25.00;99.90
18932;DHT22;9598;50.954;3.112;2023-06-14T07:30:49;25.20;99.90
18932;DHT22;9598;50.954;3.112;2023-06-14T07:35:51;25.20;99.90
18932;DHT22;9598;50.954;3.112;2023-06-14T07:40:54;25.30;99.90
18932;DHT22;9598;50.954;3.112;2023-06-14T07:45:57;25.50;99.90
18932;DHT22;9598;50.954;3.112;2023-06-14T07:50:59;25.70;99.90
18932;DHT22;9598;50.954;3.112;2023-06-14T07:56:02;25.80;99.90
18932;DHT22;9598;50.954;3.112;2023-06-14T08:01:05;26.00;99.30
18932;DHT22;9598;50.954;3.112;2023-06-14T08:06:08;26.10;98.60
18932;DHT22;9598;50.954;3.112;2023-06-14T08:11:10;26.30;98.20
18932;DHT22;9598;50.954;3.112;2023-06-14T08:16:14;26.60;98.00
18932;DHT22;9598;50.954;3.112;2023-06-14T08:21:16;26.80;97.40
18932;DHT22;9598;50.954;3.112;2023-06-14T08:26:18;27.00;96.70
18932;DHT22;9598;50.954;3.112;2023-06-14T08:31:23;27.10;96.20
18932;DHT22;9598;50.954;3.112;2023-06-14T08:36:26;27.30;95.50
18932;DHT22;9598;50.954;3.112;2023-06-14T08:41:28;27.40;94.20
18932;DHT22;9598;50.954;3.112;2023-06-14T08:46:33;27.70;93.80
18932;DHT22;9598;50.954;3.112;2023-06-14T08:51:36;27.70;94.40
18932;DHT22;9598;50.954;3.112;2023-06-14T08:56:39;27.80;92.80
18932;DHT22;9598;50.954;3.112;2023-06-14T09:01:45;27.80;91.10
18932;DHT22;9598;50.954;3.112;2023-06-14T09:06:48;27.90;90.80
18932;DHT22;9598;50.954;3.112;2023-06-14T09:11:54;28.10;89.30
18932;DHT22;9598;50.954;3.112;2023-06-14T09:16:57;28.30;85.20
18932;DHT22;9598;50.954;3.112;2023-06-14T09:22:00;28.50;82.80
18932;DHT22;9598;50.954;3.112;2023-06-14T09:27:02;28.70;81.30
18932;DHT22;9598;50.954;3.112;2023-06-14T09:32:06;28.90;81.90
18932;DHT22;9598;50.954;3.112;2023-06-14T09:37:10;28.90;80.20
18932;DHT22;9598;50.954;3.112;2023-06-14T09:42:16;29.00;77.00
18932;DHT22;9598;50.954;3.112;2023-06-14T09:47:22;29.10;75.30
18932;DHT22;9598;50.954;3.112;2023-06-14T09:52:24;29.20;74.10
18932;DHT22;9598;50.954;3.112;2023-06-14T09:57:28;29.20;76.20
18932;DHT22;9598;50.954;3.112;2023-06-14T10:02:36;29.30;71.80
18932;DHT22;9598;50.954;3.112;2023-06-14T10:07:44;29.30;71.40
18932;DHT22;9598;50.954;3.112;2023-06-14T10:12:46;29.50;70.50
18932;DHT22;9598;50.954;3.112;2023-06-14T10:17:54;29.70;69.20
18932;DHT22;9598;50.954;3.112;2023-06-14T10:23:02;29.80;70.10
18932;DHT22;9598;50.954;3.112;2023-06-14T10:28:16;29.90;67.80
18932;DHT22;9598;50.954;3.112;2023-06-14T10:33:21;30.00;65.60
18932;DHT22;9598;50.954;3.112;2023-06-14T10:38:30;30.00;66.20
18932;DHT22;9598;50.954;3.112;2023-06-14T10:43:34;30.20;66.00
18932;DHT22;9598;50.954;3.112;2023-06-14T10:48:41;30.30;64.70
18932;DHT22;9598;50.954;3.112;2023-06-14T10:53:45;30.30;64.20
18932;DHT22;9598;50.954;3.112;2023-06-14T10:58:47;30.40;63.20
18932;DHT22;9598;50.954;3.112;2023-06-14T11:03:52;30.60;64.70
18932;DHT22;9598;50.954;3.112;2023-06-14T11:09:24;30.70;63.30
18932;DHT22;9598;50.954;3.112;2023-06-14T11:14:31;30.60;62.50
18932;DHT22;9598;50.954;3.112;2023-06-14T11:19:34;30.90;61.90
18932;DHT22;9598;50.954;3.112;2023-06-14T11:24:37;31.00;61.80
18932;DHT22;9598;50.954;3.112;2023-06-14T11:29:42;31.20;62.80
18932;DHT22;9598;50.954;3.112;2023-06-14T11:34:50;31.20;60.20
18932;DHT22;9598;50.954;3.112;2023-06-14T11:39:56;31.20;60.70
18932;DHT22;9598;50.954;3.112;2023-06-14T11:44:58;31.20;59.00
18932;DHT22;9598;50.954;3.112;2023-06-14T11:50:02;31.00;58.60
18932;DHT22;9598;50.954;3.112;2023-06-14T11:55:06;31.10;58.60
18932;DHT22;9598;50.954;3.112;2023-06-14T12:00:09;31.00;57.90
18932;DHT22;9598;50.954;3.112;2023-06-14T12:05:14;30.90;57.70
18932;DHT22;9598;50.954;3.112;2023-06-14T12:10:16;31.00;58.10
18932;DHT22;9598;50.954;3.112;2023-06-14T12:15:19;31.20;58.00
18932;DHT22;9598;50.954;3.112;2023-06-14T12:20:22;31.30;57.20
18932;DHT22;9598;50.954;3.112;2023-06-14T12:25:29;31.20;57.20
18932;DHT22;9598;50.954;3.112;2023-06-14T12:30:33;31.30;56.70
18932;DHT22;9598;50.954;3.112;2023-06-14T12:35:37;31.30;57.00
18932;DHT22;9598;50.954;3.112;2023-06-14T12:40:39;31.30;56.90
18932;DHT22;9598;50.954;3.112;2023-06-14T12:45:42;31.30;57.50
18932;DHT22;9598;50.954;3.112;2023-06-14T12:50:46;31.40;56.40
18932;DHT22;9598;50.954;3.112;2023-06-14T12:55:48;31.50;56.00
18932;DHT22;9598;50.954;3.112;2023-06-14T13:00:50;31.70;56.60
18932;DHT22;9598;50.954;3.112;2023-06-14T13:05:55;31.70;55.00
18932;DHT22;9598;50.954;3.112;2023-06-14T13:10:57;31.70;56.30
18932;DHT22;9598;50.954;3.112;2023-06-14T13:15:59;31.70;55.30
18932;DHT22;9598;50.954;3.112;2023-06-14T13:21:02;31.50;55.50
18932;DHT22;9598;50.954;3.112;2023-06-14T13:26:05;31.40;56.40
18932;DHT22;9598;50.954;3.112;2023-06-14T13:31:07;31.40;54.90
18932;DHT22;9598;50.954;3.112;2023-06-14T13:36:10;31.40;55.30
18932;DHT22;9598;50.954;3.112;2023-06-14T13:41:12;31.50;55.70
18932;DHT22;9598;50.954;3.112;2023-06-14T13:46:14;31.60;55.00
18932;DHT22;9598;50.954;3.112;2023-06-14T13:51:18;31.60;55.30
18932;DHT22;9598;50.954;3.112;2023-06-14T13:56:21;31.60;54.80
18932;DHT22;9598;50.954;3.112;2023-06-14T14:01:24;31.40;55.00
18932;DHT22;9598;50.954;3.112;2023-06-14T14:06:28;31.30;55.90
18932;DHT22;9598;50.954;3.112;2023-06-14T14:11:30;31.20;55.60
18932;DHT22;9598;50.954;3.112;2023-06-14T14:16:34;31.20;54.80
18932;DHT22;9598;50.954;3.112;2023-06-14T14:21:38;31.20;54.60
18932;DHT22;9598;50.954;3.112;2023-06-14T14:26:40;31.30;56.00
18932;DHT22;9598;50.954;3.112;2023-06-14T14:31:42;31.40;54.30
18932;DHT22;9598;50.954;3.112;2023-06-14T14:36:46;31.40;54.70
18932;DHT22;9598;50.954;3.112;2023-06-14T14:41:48;31.30;54.80
18932;DHT22;9598;50.954;3.112;2023-06-14T14:46:51;31.30;54.70
18932;DHT22;9598;50.954;3.112;2023-06-14T14:51:55;31.30;55.80
18932;DHT22;9598;50.954;3.112;2023-06-14T14:56:57;31.00;55.70
18932;DHT22;9598;50.954;3.112;2023-06-14T15:02:00;31.10;57.50
18932;DHT22;9598;50.954;3.112;2023-06-14T15:07:03;31.00;58.50
18932;DHT22;9598;50.954;3.112;2023-06-14T15:12:08;31.00;59.00
18932;DHT22;9598;50.954;3.112;2023-06-14T15:17:11;31.00;58.50
18932;DHT22;9598;50.954;3.112;2023-06-14T15:22:14;31.10;58.90
18932;DHT22;9598;50.954;3.112;2023-06-14T15:27:17;31.00;59.10
18932;DHT22;9598;50.954;3.112;2023-06-14T15:32:19;31.00;59.60
18932;DHT22;9598;50.954;3.112;2023-06-14T15:37:22;30.80;57.60
18932;DHT22;9598;50.954;3.112;2023-06-14T15:42:24;30.70;58.10
18932;DHT22;9598;50.954;3.112;2023-06-14T15:47:27;30.60;57.20
18932;DHT22;9598;50.954;3.112;2023-06-14T15:52:30;30.40;61.10
18932;DHT22;9598;50.954;3.112;2023-06-14T15:57:32;30.40;58.20
18932;DHT22;9598;50.954;3.112;2023-06-14T16:02:34;30.20;58.60
18932;DHT22;9598;50.954;3.112;2023-06-14T16:07:38;30.20;59.20
18932;DHT22;9598;50.954;3.112;2023-06-14T16:12:40;30.30;57.30
18932;DHT22;9598;50.954;3.112;2023-06-14T16:17:42;30.30;57.70
18932;DHT22;9598;50.954;3.112;2023-06-14T16:22:45;30.30;57.30
18932;DHT22;9598;50.954;3.112;2023-06-14T16:27:48;30.30;58.00
18932;DHT22;9598;50.954;3.112;2023-06-14T16:32:50;30.20;57.80
18932;DHT22;9598;50.954;3.112;2023-06-14T16:37:55;30.00;57.30
18932;DHT22;9598;50.954;3.112;2023-06-14T16:42:57;29.90;57.00
18932;DHT22;9598;50.954;3.112;2023-06-14T16:47:59;29.90;57.20
18932;DHT22;9598;50.954;3.112;2023-06-14T16:53:03;29.80;57.80
18932;DHT22;9598;50.954;3.112;2023-06-14T16:58:05;29.60;57.00
18932;DHT22;9598;50.954;3.112;2023-06-14T17:03:07;29.70;58.20
18932;DHT22;9598;50.954;3.112;2023-06-14T17:08:10;29.60;57.80
18932;DHT22;9598;50.954;3.112;2023-06-14T17:13:12;29.50;56.60
18932;DHT22;9598;50.954;3.112;2023-06-14T17:18:14;29.40;57.00
18932;DHT22;9598;50.954;3.112;2023-06-14T17:23:18;29.30;56.70
18932;DHT22;9598;50.954;3.112;2023-06-14T17:28:20;29.20;57.00
18932;DHT22;9598;50.954;3.112;2023-06-14T17:33:22;29.10;56.80
18932;DHT22;9598;50.954;3.112;2023-06-14T17:38:25;29.10;56.50
18932;DHT22;9598;50.954;3.112;2023-06-14T17:43:29;28.90;56.90
18932;DHT22;9598;50.954;3.112;2023-06-14T17:48:32;28.90;57.70
18932;DHT22;9598;50.954;3.112;2023-06-14T17:53:36;28.80;57.50
18932;DHT22;9598;50.954;3.112;2023-06-14T17:58:38;28.80;57.50
18932;DHT22;9598;50.954;3.112;2023-06-14T18:03:40;28.70;57.00
18932;DHT22;9598;50.954;3.112;2023-06-14T18:08:43;28.60;56.40
18932;DHT22;9598;50.954;3.112;2023-06-14T18:13:48;28.40;56.30
18932;DHT22;9598;50.954;3.112;2023-06-14T18:18:50;28.20;56.60
18932;DHT22;9598;50.954;3.112;2023-06-14T18:23:55;28.20;57.50
18932;DHT22;9598;50.954;3.112;2023-06-14T18:28:57;28.20;57.80
18932;DHT22;9598;50.954;3.112;2023-06-14T18:34:01;28.10;57.00
18932;DHT22;9598;50.954;3.112;2023-06-14T18:39:04;28.00;57.20
18932;DHT22;9598;50.954;3.112;2023-06-14T18:44:06;27.90;57.30
18932;DHT22;9598;50.954;3.112;2023-06-14T18:49:08;27.80;57.40
18932;DHT22;9598;50.954;3.112;2023-06-14T18:54:12;27.80;57.80
18932;DHT22;9598;50.954;3.112;2023-06-14T18:59:14;27.80;57.80
18932;DHT22;9598;50.954;3.112;2023-06-14T19:04:16;27.70;58.50
18932;DHT22;9598;50.954;3.112;2023-06-14T19:09:19;27.60;59.20
18932;DHT22;9598;50.954;3.112;2023-06-14T19:14:23;27.60;59.80
18932;DHT22;9598;50.954;3.112;2023-06-14T19:19:25;27.60;60.30
18932;DHT22;9598;50.954;3.112;2023-06-14T19:24:29;27.50;60.60
18932;DHT22;9598;50.954;3.112;2023-06-14T19:29:31;27.40;61.20
18932;DHT22;9598;50.954;3.112;2023-06-14T19:34:34;27.40;62.00
18932;DHT22;9598;50.954;3.112;2023-06-14T19:39:41;27.30;62.80
18932;DHT22;9598;50.954;3.112;2023-06-14T19:44:44;27.20;64.10
18932;DHT22;9598;50.954;3.112;2023-06-14T19:49:46;27.10;63.80
18932;DHT22;9598;50.954;3.112;2023-06-14T19:54:49;27.00;64.20
18932;DHT22;9598;50.954;3.112;2023-06-14T19:59:52;27.00;65.30
18932;DHT22;9598;50.954;3.112;2023-06-14T20:04:54;26.90;65.50
18932;DHT22;9598;50.954;3.112;2023-06-14T20:09:57;26.80;66.00
18932;DHT22;9598;50.954;3.112;2023-06-14T20:14:59;26.70;67.30
18932;DHT22;9598;50.954;3.112;2023-06-14T20:20:02;26.70;67.90
18932;DHT22;9598;50.954;3.112;2023-06-14T20:25:06;26.60;68.50
18932;DHT22;9598;50.954;3.112;2023-06-14T20:30:09;26.50;69.20
18932;DHT22;9598;50.954;3.112;2023-06-14T20:35:12;26.40;69.20
18932;DHT22;9598;50.954;3.112;2023-06-14T20:40:20;26.20;69.40
18932;DHT22;9598;50.954;3.112;2023-06-14T20:45:23;26.20;70.30
18932;DHT22;9598;50.954;3.112;2023-06-14T20:50:26;26.10;69.70
18932;DHT22;9598;50.954;3.112;2023-06-14T20:55:30;26.00;70.20
18932;DHT22;9598;50.954;3.112;2023-06-14T21:00:32;25.90;70.30
18932;DHT22;9598;50.954;3.112;2023-06-14T21:05:36;25.80;70.90
18932;DHT22;9598;50.954;3.112;2023-06-14T21:10:41;25.70;70.30
18932;DHT22;9598;50.954;3.112;2023-06-14T21:15:43;25.60;71.20
18932;DHT22;9598;50.954;3.112;2023-06-14T21:20:45;25.50;71.00
18932;DHT22;9598;50.954;3.112;2023-06-14T21:25:48;25.40;71.50
18932;DHT22;9598;50.954;3.112;2023-06-14T21:30:50;25.30;72.20
18932;DHT22;9598;50.954;3.112;2023-06-14T21:35:53;25.30;73.00
18932;DHT22;9598;50.954;3.112;2023-06-14T21:40:57;25.20;75.10
18932;DHT22;9598;50.954;3.112;2023-06-14T21:45:59;25.10;74.80
18932;DHT22;9598;50.954;3.112;2023-06-14T21:51:01;25.00;76.30
18932;DHT22;9598;50.954;3.112;2023-06-14T21:56:04;25.00;77.30
18932;DHT22;9598;50.954;3.112;2023-06-14T22:01:06;24.90;77.70
18932;DHT22;9598;50.954;3.112;2023-06-14T22:06:08;24.80;79.00
18932;DHT22;9598;50.954;3.112;2023-06-14T22:11:12;24.80;79.60
18932;DHT22;9598;50.954;3.112;2023-06-14T22:16:17;24.70;80.90
18932;DHT22;9598;50.954;3.112;2023-06-14T22:21:21;24.50;81.50
18932;DHT22;9598;50.954;3.112;2023-06-14T22:26:25;24.30;82.60
18932;DHT22;9598;50.954;3.112;2023-06-14T22:31:27;24.20;83.10
18932;DHT22;9598;50.954;3.112;2023-06-14T22:36:31;24.10;83.60
18932;DHT22;9598;50.954;3.112;2023-06-14T22:41:35;24.00;85.10
18932;DHT22;9598;50.954;3.112;2023-06-14T22:46:38;23.90;85.50
18932;DHT22;9598;50.954;3.112;2023-06-14T22:51:41;23.90;85.90
18932;DHT22;9598;50.954;3.112;2023-06-14T22:56:46;23.70;86.80
18932;DHT22;9598;50.954;3.112;2023-06-14T23:01:48;23.70;87.30
18932;DHT22;9598;50.954;3.112;2023-06-14T23:06:51;23.70;88.50
18932;DHT22;9598;50.954;3.112;2023-06-14T23:11:55;23.70;89.00
18932;DHT22;9598;50.954;3.112;2023-06-14T23:16:58;23.70;89.50
18932;DHT22;9598;50.954;3.112;2023-06-14T23:22:00;23.60;90.00
18932;DHT22;9598;50.954;3.112;2023-06-14T23:27:05;23.50;89.80
18932;DHT22;9598;50.954;3.112;2023-06-14T23:32:08;23.50;90.40
18932;DHT22;9598;50.954;3.112;2023-06-14T23:37:10;23.40;90.60
18932;DHT22;9598;50.954;3.112;2023-06-14T23:42:14;23.40;90.90
18932;DHT22;9598;50.954;3.112;2023-06-14T23:47:16;23.30;91.40
18932;DHT22;9598;50.954;3.112;2023-06-14T23:52:18;23.30;91.60
18932;DHT22;9598;50.954;3.112;2023-06-14T23:57:23;23.20;91.50
